createdAt,value
2018-08-30T00:01:59.566Z,100.00
2018-08-30T00:04:27.860Z,100.00
2018-08-30T00:06:56.010Z,99.30
2018-08-30T00:09:24.583Z,99.74
2018-08-30T00:11:52.722Z,99.50
2018-08-30T00:14:21.441Z,100.00
2018-08-30T00:16:49.787Z,98.72
2018-08-30T00:19:18.555Z,98.66
2018-08-30T00:21:46.670Z,98.51
2018-08-30T00:24:14.969Z,97.63
2018-08-30T00:26:43.075Z,97.18
2018-08-30T00:29:11.172Z,97.20
2018-08-30T00:31:39.366Z,96.86
2018-08-30T00:34:07.482Z,98.01
2018-08-30T00:36:35.653Z,96.38
2018-08-30T00:39:03.922Z,97.49
2018-08-30T00:41:32.030Z,97.03
2018-08-30T00:44:00.323Z,97.22
2018-08-30T00:46:28.459Z,97.41
2018-08-30T00:48:56.594Z,96.67
2018-08-30T00:51:25.122Z,97.73
2018-08-30T00:53:53.282Z,97.85
2018-08-30T00:56:21.466Z,96.34
2018-08-30T00:58:49.632Z,97.08
2018-08-30T01:01:17.798Z,96.77
2018-08-30T01:03:45.902Z,96.91
2018-08-30T01:06:14.090Z,96.14
2018-08-30T01:08:42.370Z,97.02
2018-08-30T01:11:10.590Z,98.62
2018-08-30T01:13:38.671Z,99.24
2018-08-30T01:16:06.790Z,99.73
2018-08-30T01:18:35.039Z,99.32
2018-08-30T01:21:03.390Z,99.70
2018-08-30T01:23:31.513Z,99.26
2018-08-30T01:25:59.652Z,99.74
2018-08-30T01:28:27.841Z,100.00
2018-08-30T01:30:55.949Z,99.64
2018-08-30T01:33:24.162Z,100.00
2018-08-30T01:35:53.019Z,100.00
2018-08-30T01:38:21.534Z,98.70
2018-08-30T01:40:50.124Z,99.93
2018-08-30T01:43:18.271Z,99.78
2018-08-30T01:45:46.364Z,100.00
2018-08-30T01:48:14.729Z,100.00
2018-08-30T01:50:42.878Z,100.00
2018-08-30T01:53:11.079Z,99.04
2018-08-30T01:55:39.215Z,100.00
2018-08-30T01:58:07.417Z,99.78
2018-08-30T02:00:35.723Z,99.51
2018-08-30T02:03:03.959Z,98.84
2018-08-30T02:05:32.108Z,99.50
2018-08-30T02:08:00.830Z,98.35
2018-08-30T02:10:29.111Z,97.89
2018-08-30T02:12:58.090Z,98.82
2018-08-30T02:15:26.415Z,98.37
2018-08-30T02:17:55.152Z,98.82
2018-08-30T02:20:23.591Z,99.04
2018-08-30T02:22:51.691Z,98.62
2018-08-30T02:25:20.023Z,97.04
2018-08-30T02:27:48.163Z,97.82
2018-08-30T02:30:16.277Z,97.46
2018-08-30T02:32:44.399Z,99.57
2018-08-30T02:35:12.539Z,99.77
2018-08-30T02:37:40.682Z,99.46
2018-08-30T02:40:09.138Z,98.84
2018-08-30T02:42:37.266Z,98.21
2018-08-30T02:45:05.717Z,97.93
2018-08-30T02:47:34.209Z,99.27
2018-08-30T02:50:02.547Z,97.03
2018-08-30T02:52:30.744Z,97.60
2018-08-30T02:54:59.195Z,97.26
2018-08-30T02:57:27.312Z,97.56
2018-08-30T02:59:56.908Z,97.31
2018-08-30T03:02:25.527Z,96.44
2018-08-30T03:04:53.783Z,96.20
2018-08-30T03:07:21.918Z,96.81
2018-08-30T03:09:50.078Z,96.45
2018-08-30T03:12:18.218Z,95.74
2018-08-30T03:14:56.438Z,96.35
2018-08-30T03:17:24.595Z,96.34
2018-08-30T03:19:54.288Z,96.07
2018-08-30T03:27:20.680Z,94.57
2018-08-30T03:29:49.077Z,94.34
2018-08-30T03:32:17.210Z,93.97
2018-08-30T03:34:45.542Z,93.88
2018-08-30T03:37:15.229Z,93.52
2018-08-30T03:39:43.307Z,94.62
2018-08-30T03:42:11.439Z,95.58
2018-08-30T03:44:39.648Z,95.74
2018-08-30T03:47:08.702Z,95.78
2018-08-30T03:49:37.225Z,95.00
2018-08-30T03:52:17.885Z,94.83
2018-08-30T03:54:52.447Z,96.11
2018-08-30T03:57:20.629Z,96.18
2018-08-30T03:59:48.768Z,95.12
2018-08-30T04:02:16.956Z,95.79
2018-08-30T04:04:45.119Z,94.73
2018-08-30T04:07:13.233Z,95.26
2018-08-30T04:09:41.540Z,95.11
2018-08-30T04:12:09.658Z,94.85
2018-08-30T04:14:38.550Z,93.92
2018-08-30T04:17:07.391Z,92.46
2018-08-30T04:19:35.562Z,92.44
2018-08-30T04:22:03.768Z,91.94
2018-08-30T04:24:31.943Z,91.79
2018-08-30T04:27:01.078Z,90.82
2018-08-30T04:29:29.219Z,89.97
2018-08-30T04:31:57.329Z,89.92
2018-08-30T04:34:25.619Z,89.94
2018-08-30T04:36:53.687Z,89.84
2018-08-30T04:39:21.771Z,90.36
2018-08-30T04:41:49.860Z,89.76
2018-08-30T04:44:18.173Z,90.28
2018-08-30T04:46:46.532Z,89.35
2018-08-30T04:49:14.778Z,89.77
2018-08-30T04:51:42.935Z,89.76
2018-08-30T04:54:11.095Z,88.83
2018-08-30T04:56:39.247Z,88.97
2018-08-30T04:59:07.393Z,89.18
2018-08-30T05:01:35.562Z,88.66
2018-08-30T05:04:03.672Z,89.12
2018-08-30T05:06:31.819Z,88.68
2018-08-30T05:09:00.046Z,89.38
2018-08-30T05:11:28.123Z,88.55
2018-08-30T05:13:56.279Z,88.25
2018-08-30T05:16:25.328Z,87.42
2018-08-30T05:18:54.179Z,87.80
2018-08-30T05:21:22.625Z,87.74
2018-08-30T05:23:50.671Z,87.08
2018-08-30T05:26:18.758Z,87.03
2018-08-30T05:28:46.853Z,87.02
2018-08-30T05:31:15.008Z,87.04
2018-08-30T05:33:43.103Z,88.15
2018-08-30T05:36:11.164Z,87.88
2018-08-30T05:38:40.381Z,88.50
2018-08-30T05:41:08.462Z,89.27
2018-08-30T05:43:36.717Z,88.87
2018-08-30T05:46:04.813Z,89.76
2018-08-30T05:48:32.919Z,90.64
2018-08-30T05:51:01.343Z,90.07
2018-08-30T05:53:29.581Z,89.46
2018-08-30T05:55:57.796Z,89.54
2018-08-30T05:58:26.000Z,87.92
2018-08-30T06:00:54.207Z,88.23
2018-08-30T06:03:22.295Z,87.35
2018-08-30T06:05:50.489Z,87.77
2018-08-30T06:08:18.632Z,88.75
2018-08-30T06:10:46.728Z,87.10
2018-08-30T06:13:14.808Z,88.49
2018-08-30T06:15:43.003Z,87.54
2018-08-30T06:18:11.106Z,87.67
2018-08-30T06:20:39.243Z,87.73
2018-08-30T06:23:07.507Z,88.06
2018-08-30T06:25:36.205Z,87.78
2018-08-30T06:28:04.466Z,87.04
2018-08-30T06:30:33.264Z,86.45
2018-08-30T06:33:01.614Z,86.47
2018-08-30T06:35:29.919Z,85.98
2018-08-30T06:37:58.056Z,86.17
2018-08-30T06:40:26.615Z,86.43
2018-08-30T06:42:54.695Z,85.18
2018-08-30T06:45:22.833Z,85.35
2018-08-30T06:47:51.323Z,84.38
2018-08-30T06:50:19.427Z,83.16
2018-08-30T06:52:47.765Z,82.41
2018-08-30T06:55:15.845Z,82.05
2018-08-30T06:57:44.092Z,82.52
2018-08-30T07:00:12.321Z,81.08
2018-08-30T07:02:40.463Z,80.50
2018-08-30T07:05:08.558Z,79.77
2018-08-30T07:07:36.707Z,79.84
2018-08-30T07:10:05.179Z,79.70
2018-08-30T07:12:33.454Z,79.50
2018-08-30T07:15:01.741Z,80.72
2018-08-30T07:17:29.903Z,81.50
2018-08-30T07:19:58.062Z,81.80
2018-08-30T07:22:26.287Z,80.70
2018-08-30T07:24:54.590Z,81.90
2018-08-30T07:27:22.735Z,82.35
2018-08-30T07:29:50.850Z,83.69
2018-08-30T07:32:19.034Z,82.72
2018-08-30T07:34:47.267Z,82.47
2018-08-30T07:37:15.320Z,82.46
2018-08-30T07:39:43.386Z,82.67
2018-08-30T07:42:11.499Z,82.56
2018-08-30T07:44:39.699Z,81.43
2018-08-30T07:47:07.764Z,80.81
2018-08-30T07:49:35.872Z,79.99
2018-08-30T07:52:04.023Z,79.46
2018-08-30T07:54:32.202Z,79.66
2018-08-30T07:57:00.338Z,79.77
2018-08-30T07:59:28.504Z,79.53
2018-08-30T08:01:56.631Z,79.54
2018-08-30T08:04:24.786Z,80.12
2018-08-30T08:06:52.877Z,80.59
2018-08-30T08:09:21.030Z,80.32
2018-08-30T08:11:49.130Z,80.23
2018-08-30T08:14:17.627Z,80.39
2018-08-30T08:16:45.695Z,81.21
2018-08-30T08:19:13.912Z,79.92
2018-08-30T08:21:41.995Z,79.93
2018-08-30T08:24:10.113Z,80.57
2018-08-30T08:26:38.220Z,80.04
2018-08-30T08:29:07.109Z,80.17
2018-08-30T08:31:35.212Z,80.07
2018-08-30T08:34:03.428Z,81.06
2018-08-30T08:36:31.629Z,80.69
2018-08-30T08:38:59.810Z,80.54
2018-08-30T08:41:27.983Z,79.87
2018-08-30T08:43:56.082Z,78.68
2018-08-30T08:46:24.995Z,77.61
2018-08-30T08:48:53.116Z,78.67
2018-08-30T08:51:21.223Z,78.13
2018-08-30T08:53:49.364Z,78.30
2018-08-30T08:56:17.397Z,77.09
2018-08-30T08:58:45.662Z,75.59
2018-08-30T09:01:13.736Z,75.63
2018-08-30T09:03:41.930Z,74.54
2018-08-30T09:06:10.088Z,74.09
2018-08-30T09:08:38.246Z,73.29
2018-08-30T09:11:06.373Z,74.07
2018-08-30T09:13:34.592Z,72.52
2018-08-30T09:16:03.362Z,72.79
2018-08-30T09:18:31.582Z,72.62
2018-08-30T09:20:59.653Z,72.15
2018-08-30T09:23:27.815Z,73.07
2018-08-30T09:25:55.935Z,73.09
2018-08-30T09:28:26.164Z,73.04
2018-08-30T09:30:55.156Z,72.32
2018-08-30T09:33:23.201Z,71.52
2018-08-30T09:35:51.304Z,72.02
2018-08-30T09:38:19.387Z,71.72
2018-08-30T09:40:47.468Z,71.05
2018-08-30T09:43:15.596Z,71.39
2018-08-30T09:45:43.699Z,71.98
2018-08-30T09:48:11.775Z,72.95
2018-08-30T09:50:40.463Z,72.83
2018-08-30T09:53:08.611Z,72.48
2018-08-30T09:55:36.819Z,72.60
2018-08-30T09:58:05.055Z,71.80
2018-08-30T10:00:38.440Z,70.88
2018-08-30T10:03:06.852Z,70.58
2018-08-30T10:05:34.975Z,71.37
2018-08-30T10:08:10.053Z,70.43
2018-08-30T10:10:38.371Z,71.18
2018-08-30T10:13:06.834Z,68.88
2018-08-30T10:15:35.295Z,66.94
2018-08-30T10:18:03.437Z,66.47
2018-08-30T10:20:31.504Z,65.82
2018-08-30T10:22:59.692Z,64.18
2018-08-30T10:25:27.986Z,63.68
2018-08-30T10:27:55.972Z,63.99
2018-08-30T10:30:24.063Z,64.83
2018-08-30T10:32:52.166Z,64.09
2018-08-30T10:35:20.296Z,65.12
2018-08-30T10:37:48.643Z,64.19
2018-08-30T10:40:16.718Z,64.22
2018-08-30T10:42:44.936Z,65.79
2018-08-30T10:45:13.014Z,67.42
2018-08-30T10:47:41.135Z,66.12
2018-08-30T10:50:09.278Z,65.83
2018-08-30T10:52:37.395Z,65.28
2018-08-30T10:55:05.571Z,63.83
2018-08-30T10:57:33.690Z,62.41
2018-08-30T11:00:01.831Z,60.28
2018-08-30T11:02:29.996Z,58.79
2018-08-30T11:04:58.584Z,59.67
2018-08-30T11:07:26.886Z,60.03
2018-08-30T11:09:55.644Z,56.72
2018-08-30T11:12:23.737Z,58.28
2018-08-30T11:14:51.900Z,57.19
2018-08-30T11:17:20.003Z,55.32
2018-08-30T11:19:48.143Z,55.42
2018-08-30T11:22:16.284Z,56.32
2018-08-30T11:24:44.517Z,56.22
2018-08-30T11:27:12.812Z,57.57
2018-08-30T11:29:40.955Z,56.62
2018-08-30T11:32:09.151Z,56.87
2018-08-30T11:34:37.284Z,54.10
2018-08-30T11:37:05.960Z,54.20
2018-08-30T11:39:34.195Z,53.04
2018-08-30T11:42:02.362Z,55.04
2018-08-30T11:44:30.482Z,56.62
2018-08-30T11:46:58.778Z,58.54
2018-08-30T11:49:26.947Z,58.68
2018-08-30T11:51:55.829Z,59.46
2018-08-30T11:54:24.009Z,59.48
2018-08-30T11:56:52.218Z,59.48
2018-08-30T11:59:20.311Z,58.25
2018-08-30T12:01:48.434Z,56.69
2018-08-30T12:04:17.460Z,54.79
2018-08-30T12:06:45.583Z,50.37
2018-08-30T12:09:14.308Z,47.23
2018-08-30T12:11:42.549Z,46.65
2018-08-30T12:14:10.664Z,47.26
2018-08-30T12:16:38.989Z,43.10
2018-08-30T12:19:07.165Z,41.88
2018-08-30T12:21:35.304Z,45.35
2018-08-30T12:24:03.415Z,46.32
2018-08-30T12:26:31.604Z,47.08
2018-08-30T12:28:59.819Z,48.98
2018-08-30T12:31:27.894Z,48.97
2018-08-30T12:33:57.311Z,50.06
2018-08-30T12:36:26.179Z,50.98
2018-08-30T12:38:54.419Z,49.79
2018-08-30T12:41:22.593Z,50.18
2018-08-30T12:43:50.800Z,50.50
2018-08-30T12:46:18.728Z,47.54
2018-08-30T12:48:46.890Z,38.24
2018-08-30T12:51:15.501Z,36.19
2018-08-30T12:53:43.459Z,32.79
2018-08-30T12:56:12.130Z,34.51
2018-08-30T12:58:40.101Z,40.86
2018-08-30T13:01:08.250Z,39.32
2018-08-30T13:03:36.526Z,41.65
2018-08-30T13:06:04.951Z,36.08
2018-08-30T13:08:33.066Z,40.80
2018-08-30T13:11:01.170Z,41.15
2018-08-30T13:13:29.148Z,41.27
2018-08-30T13:15:57.353Z,37.08
2018-08-30T13:18:26.570Z,42.02
2018-08-30T13:20:54.903Z,43.68
2018-08-30T13:23:23.005Z,43.13
2018-08-30T13:25:51.276Z,37.80
2018-08-30T13:28:19.381Z,38.97
2018-08-30T13:30:47.375Z,33.22
2018-08-30T13:33:19.909Z,28.72
2018-08-30T13:35:43.620Z,27.71
2018-08-30T13:38:11.891Z,23.60
2018-08-30T13:40:40.198Z,24.91
2018-08-30T13:43:08.070Z,20.31
2018-08-30T13:45:36.272Z,20.92
2018-08-30T13:48:04.434Z,19.63
2018-08-30T13:50:32.649Z,22.88
2018-08-30T13:53:01.206Z,22.06
2018-08-30T13:55:29.249Z,20.35
2018-08-30T13:57:57.735Z,20.00
2018-08-30T14:00:27.179Z,18.64
2018-08-30T14:02:55.048Z,23.46
2018-08-30T14:05:23.212Z,26.95
2018-08-30T14:07:51.502Z,27.51
2018-08-30T14:10:19.785Z,25.98
2018-08-30T14:12:47.621Z,25.27
2018-08-30T14:15:15.939Z,23.58
2018-08-30T14:17:44.261Z,23.88
2018-08-30T14:20:12.384Z,21.35
2018-08-30T14:22:40.752Z,24.56
2018-08-30T14:25:08.766Z,29.83
2018-08-30T14:27:37.052Z,30.95
2018-08-30T14:30:05.165Z,32.20
2018-08-30T14:32:33.263Z,32.58
2018-08-30T14:35:01.444Z,32.55
2018-08-30T14:37:29.575Z,34.12
2018-08-30T14:39:57.783Z,32.90
2018-08-30T14:42:26.507Z,34.08
2018-08-30T14:44:54.599Z,34.88
2018-08-30T14:47:23.085Z,37.17
2018-08-30T14:49:51.279Z,36.24
2018-08-30T14:52:19.601Z,33.97
2018-08-30T14:54:47.752Z,33.88
2018-08-30T14:57:16.187Z,34.27
2018-08-30T14:59:44.333Z,34.53
2018-08-30T15:02:12.490Z,35.13
2018-08-30T15:04:40.604Z,35.83
2018-08-30T15:07:08.728Z,36.12
2018-08-30T15:09:36.794Z,35.67
2018-08-30T15:12:04.908Z,35.00
2018-08-30T15:14:33.082Z,33.29
2018-08-30T15:17:01.556Z,26.95
2018-08-30T15:19:29.448Z,27.94
2018-08-30T15:21:57.568Z,24.15
2018-08-30T15:29:18.348Z,28.63
2018-08-30T15:31:46.535Z,23.19
2018-08-30T15:34:14.656Z,22.44
2018-08-30T15:36:42.929Z,23.28
2018-08-30T15:39:11.644Z,26.32
2018-08-30T15:41:39.897Z,22.04
2018-08-30T15:44:08.119Z,24.21
2018-08-30T15:46:36.300Z,26.20
2018-08-30T15:49:04.654Z,31.29
2018-08-30T15:51:32.885Z,32.28
2018-08-30T15:54:01.265Z,32.47
2018-08-30T15:56:29.315Z,31.34
2018-08-30T15:58:57.422Z,33.51
2018-08-30T16:01:25.547Z,32.57
2018-08-30T16:03:53.672Z,31.12
2018-08-30T16:06:21.787Z,30.96
2018-08-30T16:08:49.899Z,33.93
2018-08-30T16:11:18.151Z,34.69
2018-08-30T16:13:46.199Z,36.50
2018-08-30T16:16:14.541Z,31.34
2018-08-30T16:18:42.702Z,33.75
2018-08-30T16:21:10.815Z,32.55
2018-08-30T16:23:39.057Z,34.95
2018-08-30T16:26:07.363Z,36.67
2018-08-30T16:28:36.153Z,36.33
2018-08-30T16:31:04.268Z,37.10
2018-08-30T16:33:32.359Z,37.91
2018-08-30T16:36:00.458Z,38.04
2018-08-30T16:38:28.585Z,38.42
2018-08-30T16:40:57.127Z,36.75
2018-08-30T16:43:25.387Z,37.47
2018-08-30T16:45:53.519Z,37.01
2018-08-30T16:48:21.633Z,37.67
2018-08-30T16:50:49.705Z,37.79
2018-08-30T16:53:17.952Z,37.83
2018-08-30T16:55:46.023Z,37.92
2018-08-30T16:58:14.327Z,37.46
2018-08-30T17:00:42.471Z,37.37
2018-08-30T17:03:10.933Z,37.66
2018-08-30T17:05:39.127Z,38.35
2018-08-30T17:08:07.300Z,37.95
2018-08-30T17:10:35.457Z,38.25
2018-08-30T17:13:03.507Z,39.02
2018-08-30T17:15:31.727Z,39.43
2018-08-30T17:17:59.909Z,39.64
2018-08-30T17:20:46.660Z,38.91
2018-08-30T17:23:14.839Z,39.59
2018-08-30T17:25:43.520Z,40.45
2018-08-30T17:28:12.124Z,39.78
2018-08-30T17:31:00.769Z,39.85
2018-08-30T17:33:50.858Z,40.00
2018-08-30T17:36:19.601Z,39.65
2018-08-30T17:38:47.818Z,40.32
2018-08-30T17:41:15.894Z,40.61
2018-08-30T17:43:44.015Z,40.67
2018-08-30T17:46:12.223Z,40.62
2018-08-30T17:48:40.435Z,40.83
2018-08-30T17:51:08.595Z,41.15
2018-08-30T17:53:36.703Z,40.58
2018-08-30T17:56:04.974Z,41.59
2018-08-30T17:58:33.045Z,41.43
2018-08-30T18:01:01.247Z,42.18
2018-08-30T18:03:29.466Z,42.17
2018-08-30T18:05:57.619Z,42.44
2018-08-30T18:08:25.841Z,41.89
2018-08-30T18:10:54.018Z,42.02
2018-08-30T18:13:22.602Z,42.47
2018-08-30T18:15:50.784Z,42.14
2018-08-30T18:18:18.938Z,42.61
2018-08-30T18:20:47.067Z,42.53
2018-08-30T18:23:15.168Z,43.08
2018-08-30T18:25:43.343Z,42.43
2018-08-30T18:28:11.720Z,43.00
2018-08-30T18:30:39.815Z,43.11
2018-08-30T18:33:07.942Z,43.49
2018-08-30T18:35:36.037Z,43.37
2018-08-30T18:38:04.168Z,42.82
2018-08-30T18:40:32.399Z,42.98
2018-08-30T18:43:00.471Z,42.88
2018-08-30T18:45:28.649Z,42.81
2018-08-30T18:47:57.641Z,43.18
2018-08-30T18:50:26.037Z,43.04
2018-08-30T18:52:54.116Z,42.64
2018-08-30T18:55:22.403Z,42.19
2018-08-30T18:57:50.623Z,42.58
2018-08-30T19:00:18.804Z,43.24
2018-08-30T19:02:49.164Z,42.98
2018-08-30T19:05:17.275Z,42.71
2018-08-30T19:07:45.379Z,43.26
2018-08-30T19:10:14.877Z,42.37
2018-08-30T19:12:44.161Z,43.16
2018-08-30T19:15:17.560Z,43.03
2018-08-30T19:17:51.148Z,42.76
2018-08-30T19:20:19.257Z,42.78
2018-08-30T19:22:47.352Z,43.09
2018-08-30T19:25:19.708Z,42.82
2018-08-30T19:27:47.939Z,42.66
2018-08-30T19:30:21.350Z,42.56
2018-08-30T19:32:49.528Z,42.69
2018-08-30T19:35:23.008Z,42.75
2018-08-30T19:37:51.383Z,42.44
2018-08-30T19:40:25.012Z,42.80
2018-08-30T19:42:53.174Z,42.91
2018-08-30T19:45:21.393Z,42.36
2018-08-30T19:47:49.509Z,43.24
2018-08-30T19:50:17.611Z,43.03
2018-08-30T19:52:46.926Z,42.71
2018-08-30T19:55:15.083Z,42.55
2018-08-30T19:57:43.364Z,42.48
2018-08-30T20:00:11.589Z,42.86
2018-08-30T20:02:40.013Z,42.98
2018-08-30T20:05:08.873Z,42.67
2018-08-30T20:07:37.472Z,42.70
2018-08-30T20:10:06.338Z,42.46
2018-08-30T20:12:34.552Z,42.75
2018-08-30T20:15:05.289Z,42.80
2018-08-30T20:17:33.514Z,43.06
2018-08-30T20:20:01.649Z,42.96
2018-08-30T20:22:30.058Z,43.25
2018-08-30T20:24:58.754Z,42.94
2018-08-30T20:27:27.123Z,42.61
2018-08-30T20:29:55.828Z,42.43
2018-08-30T20:32:24.184Z,43.00
2018-08-30T20:34:52.369Z,43.06
2018-08-30T20:37:20.605Z,43.15
2018-08-30T20:39:48.888Z,43.19
2018-08-30T20:42:17.185Z,43.28
2018-08-30T20:44:45.484Z,43.29
2018-08-30T20:47:13.670Z,43.58
2018-08-30T20:49:41.872Z,43.03
2018-08-30T20:52:10.147Z,43.46
2018-08-30T20:54:38.365Z,43.93
2018-08-30T20:57:06.646Z,43.85
2018-08-30T20:59:34.720Z,43.54
2018-08-30T21:02:02.933Z,43.40
2018-08-30T21:04:30.964Z,43.41
2018-08-30T21:07:01.312Z,43.42
2018-08-30T21:09:29.512Z,44.08
2018-08-30T21:11:58.480Z,44.31
2018-08-30T21:14:26.596Z,44.09
2018-08-30T21:16:56.781Z,44.27
2018-08-30T21:19:25.134Z,44.68
2018-08-30T21:21:53.686Z,44.44
2018-08-30T21:24:22.003Z,45.08
2018-08-30T21:26:50.229Z,44.79
2018-08-30T21:29:18.468Z,44.28
2018-08-30T21:31:46.706Z,44.81
2018-08-30T21:34:15.878Z,45.10
2018-08-30T21:36:44.035Z,44.97
2018-08-30T21:39:12.247Z,44.90
2018-08-30T21:41:40.380Z,44.55
2018-08-30T21:44:08.517Z,44.31
2018-08-30T21:46:36.684Z,44.34
2018-08-30T21:49:04.790Z,44.51
2018-08-30T21:51:32.874Z,44.74
2018-08-30T21:54:01.118Z,44.29
2018-08-30T21:56:29.235Z,44.80
2018-08-30T21:58:58.676Z,44.80
2018-08-30T22:01:26.842Z,45.04
2018-08-30T22:03:55.116Z,45.12
2018-08-30T22:06:23.231Z,45.65
2018-08-30T22:08:51.496Z,45.42
2018-08-30T22:11:19.984Z,45.32
2018-08-30T22:13:48.101Z,45.60
2018-08-30T22:16:16.205Z,45.11
2018-08-30T22:18:44.658Z,45.85
2018-08-30T22:21:12.951Z,46.18
2018-08-30T22:23:41.140Z,45.65
2018-08-30T22:26:09.501Z,46.26
2018-08-30T22:28:37.624Z,46.43
2018-08-30T22:31:05.927Z,45.55
2018-08-30T22:33:34.056Z,46.19
2018-08-30T22:36:02.128Z,46.26
2018-08-30T22:38:30.255Z,46.02
2018-08-30T22:40:58.819Z,46.33
2018-08-30T22:43:26.937Z,46.68
2018-08-30T22:45:55.040Z,46.57
2018-08-30T22:48:23.122Z,46.26
2018-08-30T22:50:51.239Z,46.51
2018-08-30T22:53:19.420Z,46.68
2018-08-30T22:55:47.547Z,46.87
2018-08-30T22:58:15.668Z,46.66
2018-08-30T23:00:44.020Z,46.25
2018-08-30T23:03:12.152Z,46.39
2018-08-30T23:05:42.482Z,46.88
2018-08-30T23:08:10.580Z,46.80
2018-08-30T23:10:38.699Z,46.68
2018-08-30T23:13:07.156Z,46.58
2018-08-30T23:15:35.270Z,46.68
2018-08-30T23:18:03.407Z,46.31
2018-08-30T23:20:31.540Z,46.13
2018-08-30T23:22:59.712Z,46.53
2018-08-30T23:25:28.858Z,46.25
2018-08-30T23:27:57.010Z,46.96
2018-08-30T23:30:25.146Z,46.58
2018-08-30T23:32:53.243Z,46.73
2018-08-30T23:35:21.372Z,47.12
2018-08-30T23:37:49.481Z,46.95
2018-08-30T23:40:17.567Z,46.68
2018-08-30T23:42:45.764Z,47.28
2018-08-30T23:45:13.932Z,46.78
2018-08-30T23:47:42.069Z,47.28
2018-08-30T23:50:10.212Z,47.58
2018-08-30T23:52:38.432Z,47.48
2018-08-30T23:55:06.696Z,47.64
2018-08-30T23:57:34.842Z,47.22
